Time;durP1;ratioP1;P1;durP2;ratioP2;P2;SDS_P1;SDS_P2;PMS_P1;PMS_P2;Temp;Humidity;BMP_temperature;BMP_pressure;BME280_temperature;BME280_humidity;BME280_pressure;Samples;Min_cycle;Max_cycle;Signal;HPM_P1;HPM_P2
2022/03/05 00:01:40;;;;;;;6.70;3.92;;;16.90;37.30;;;;;;5124856;27;46376;-82
2022/03/05 00:04:07;;;;;;;6.22;3.92;;;16.90;37.30;;;;;;5128777;27;45177;-82
2022/03/05 00:06:34;;;;;;;5.97;4.22;;;16.90;37.40;;;;;;5112949;27;45291;-82
2022/03/05 00:09:01;;;;;;;7.22;4.30;;;16.90;37.50;;;;;;5109101;27;45262;-82
2022/03/05 00:11:28;;;;;;;6.90;3.78;;;16.90;37.60;;;;;;5110022;27;47168;-82
2022/03/05 00:13:56;;;;;;;6.43;3.97;;;16.90;37.60;;;;;;5115115;27;45635;-82
2022/03/05 00:16:23;;;;;;;7.68;4.30;;;16.80;37.30;;;;;;5125138;27;45176;-81
2022/03/05 00:18:51;;;;;;;7.32;4.20;;;16.80;37.20;;;;;;5128958;27;45338;-82
2022/03/05 00:21:18;;;;;;;6.47;4.13;;;16.80;37.50;;;;;;5126365;27;45425;-82
2022/03/05 00:23:46;;;;;;;6.28;3.80;;;16.80;37.50;;;;;;5125369;27;45259;-82
2022/03/05 00:26:13;;;;;;;7.53;4.20;;;16.90;37.80;;;;;;5117103;27;45258;-82
2022/03/05 00:28:40;;;;;;;7.70;4.85;;;16.90;37.30;;;;;;5125471;27;45347;-82
2022/03/05 00:31:08;;;;;;;7.47;4.38;;;16.90;37.40;;;;;;5120932;27;47404;-82
2022/03/05 00:33:34;;;;;;;6.70;4.40;;;17.00;38.00;;;;;;5125573;27;45576;-82
2022/03/05 00:36:01;;;;;;;6.82;4.32;;;17.00;37.90;;;;;;5121235;27;45300;-82
2022/03/05 00:38:28;;;;;;;8.23;4.25;;;17.00;37.40;;;;;;5124790;27;45469;-82
2022/03/05 00:40:55;;;;;;;8.75;5.15;;;17.00;37.50;;;;;;5127519;27;47311;-82
2022/03/05 00:43:21;;;;;;;7.38;4.65;;;17.00;37.00;;;;;;5125903;27;45274;-82
2022/03/05 00:45:48;;;;;;;7.35;4.47;;;17.00;37.00;;;;;;5123304;27;45323;-82
2022/03/05 00:48:17;;;;;;;7.28;4.68;;;17.00;37.40;;;;;;5126488;27;45175;-82
2022/03/05 00:50:44;;;;;;;8.25;4.90;;;16.90;37.30;;;;;;5119449;27;47739;-82
2022/03/05 00:53:12;;;;;;;6.88;4.57;;;16.90;37.30;;;;;;5120601;27;45408;-82
2022/03/05 00:55:39;;;;;;;8.10;4.90;;;16.90;37.10;;;;;;5130583;27;45384;-82
2022/03/05 00:58:06;;;;;;;6.93;4.38;;;16.90;37.30;;;;;;5117751;27;45215;-82
2022/03/05 01:00:33;;;;;;;6.93;4.22;;;16.90;37.70;;;;;;5119614;27;45199;-82
2022/03/05 01:03:00;;;;;;;8.48;4.65;;;16.90;38.00;;;;;;5120721;27;45553;-82
2022/03/05 01:05:29;;;;;;;7.25;4.53;;;16.90;38.10;;;;;;5122622;27;46088;-82
2022/03/05 01:07:56;;;;;;;8.27;5.20;;;16.90;38.10;;;;;;5126246;27;45286;-82
2022/03/05 01:10:22;;;;;;;7.88;4.68;;;16.90;37.90;;;;;;5127122;27;47499;-82
2022/03/05 01:12:49;;;;;;;6.97;3.78;;;16.90;38.20;;;;;;5120587;27;45505;-82
2022/03/05 01:15:16;;;;;;;7.43;4.40;;;16.90;38.00;;;;;;5128212;27;45229;-82
2022/03/05 01:17:43;;;;;;;8.30;4.80;;;16.90;37.90;;;;;;5121976;27;45414;-82
2022/03/05 01:20:11;;;;;;;8.68;4.97;;;16.90;38.00;;;;;;5123503;27;47042;-82
2022/03/05 01:22:39;;;;;;;7.82;5.03;;;17.00;37.70;;;;;;5122654;27;45394;-82
2022/03/05 01:25:07;;;;;;;9.40;4.95;;;17.00;37.70;;;;;;5110400;27;45408;-82
2022/03/05 01:27:34;;;;;;;10.00;5.22;;;17.00;37.70;;;;;;5118308;27;45386;-82
2022/03/05 01:30:00;;;;;;;9.45;5.45;;;17.00;38.90;;;;;;5126180;27;47377;-82
2022/03/05 01:32:28;;;;;;;9.55;5.57;;;17.00;37.30;;;;;;5124843;27;45415;-80
2022/03/05 01:34:54;;;;;;;7.97;4.78;;;16.90;37.30;;;;;;5115164;27;45238;-82
2022/03/05 01:37:21;;;;;;;9.82;5.40;;;16.80;37.20;;;;;;5109680;27;45326;-82
2022/03/05 01:39:50;;;;;;;9.90;5.78;;;16.90;37.00;;;;;;5121246;27;46204;-81
2022/03/05 01:42:20;;;;;;;9.73;6.00;;;16.90;37.20;;;;;;5120112;27;45293;-81
2022/03/05 01:44:46;;;;;;;9.77;5.30;;;16.90;37.10;;;;;;5116945;27;45426;-81
2022/03/05 01:47:13;;;;;;;9.45;5.10;;;16.90;37.40;;;;;;5116096;27;45989;-82
2022/03/05 01:49:40;;;;;;;9.77;5.32;;;16.90;37.30;;;;;;5123457;27;45434;-81
2022/03/05 01:52:07;;;;;;;10.98;5.95;;;16.80;37.40;;;;;;5123799;27;45150;-81
2022/03/05 01:54:34;;;;;;;12.90;6.88;;;16.80;37.40;;;;;;5113310;27;45369;-82
2022/03/05 01:57:04;;;;;;;11.00;6.13;;;16.80;37.40;;;;;;5115119;27;45508;-82
2022/03/05 01:59:31;;;;;;;10.40;6.07;;;16.80;37.30;;;;;;5128619;27;45212;-81
2022/03/05 02:01:58;;;;;;;9.65;5.65;;;16.90;37.30;;;;;;5129195;27;45304;-81
2022/03/05 02:04:25;;;;;;;9.50;5.90;;;16.90;37.90;;;;;;5121972;27;45351;-82
2022/03/05 02:06:53;;;;;;;10.32;5.53;;;16.90;37.80;;;;;;5115292;27;45406;-82
2022/03/05 02:09:20;;;;;;;10.63;6.15;;;16.90;37.50;;;;;;5127211;27;48141;-82
2022/03/05 02:11:47;;;;;;;9.00;5.47;;;16.90;37.60;;;;;;5129769;27;45291;-82
2022/03/05 02:14:19;;;;;;;12.32;6.78;;;16.90;37.80;;;;;;5132697;27;45172;-82
2022/03/05 02:16:46;;;;;;;9.32;6.25;;;17.00;37.10;;;;;;5114136;27;45445;-81
2022/03/05 02:19:13;;;;;;;10.23;5.93;;;16.90;37.30;;;;;;5123339;27;45332;-82
2022/03/05 02:21:41;;;;;;;8.95;5.78;;;16.90;37.30;;;;;;5127107;27;45664;-82
2022/03/05 02:24:09;;;;;;;11.55;6.80;;;16.90;37.10;;;;;;5128883;27;45484;-82
2022/03/05 02:26:36;;;;;;;12.25;7.15;;;16.90;37.10;;;;;;5130890;27;45281;-82
2022/03/05 02:29:03;;;;;;;12.18;6.38;;;16.90;37.10;;;;;;5130409;27;47393;-82
2022/03/05 02:31:29;;;;;;;10.68;6.25;;;16.90;37.10;;;;;;5127758;27;45890;-82
2022/03/05 02:33:58;;;;;;;11.60;6.63;;;16.90;37.10;;;;;;5127036;27;45286;-81
2022/03/05 02:36:26;;;;;;;12.80;7.25;;;16.80;37.20;;;;;;5129180;27;45529;-82
2022/03/05 02:38:54;;;;;;;11.43;7.00;;;16.80;37.10;;;;;;5120751;27;45686;-81
2022/03/05 02:41:23;;;;;;;12.40;7.28;;;16.80;37.20;;;;;;5129203;27;45630;-82
2022/03/05 02:43:50;;;;;;;11.88;6.75;;;16.80;36.70;;;;;;5131176;27;45268;-82
2022/03/05 02:46:16;;;;;;;13.13;7.25;;;16.80;36.10;;;;;;5125047;27;45334;-81
2022/03/05 02:48:43;;;;;;;12.00;7.28;;;16.80;35.50;;;;;;5129671;27;47407;-82
2022/03/05 02:51:10;;;;;;;11.55;6.53;;;16.90;35.70;;;;;;5114300;27;45161;-82
2022/03/05 02:53:37;;;;;;;11.52;6.78;;;16.80;35.90;;;;;;5131470;27;45251;-82
2022/03/05 02:56:06;;;;;;;12.35;7.63;;;16.80;36.10;;;;;;5122272;27;45457;-81
2022/03/05 02:58:33;;;;;;;13.75;7.82;;;16.80;35.70;;;;;;5121260;27;47388;-81
2022/03/05 03:00:59;;;;;;;14.27;7.82;;;16.80;35.80;;;;;;5123045;27;45515;-81
2022/03/05 03:03:26;;;;;;;13.18;7.40;;;16.90;35.60;;;;;;5110187;27;45218;-81
2022/03/05 03:05:53;;;;;;;12.52;7.07;;;16.80;36.10;;;;;;5123409;27;45442;-81
2022/03/05 03:08:20;;;;;;;13.10;7.43;;;16.80;36.20;;;;;;5120229;27;46374;-81
2022/03/05 03:10:46;;;;;;;13.40;7.43;;;16.80;36.70;;;;;;5129026;27;45329;-81
2022/03/05 03:13:15;;;;;;;13.57;7.50;;;16.80;37.20;;;;;;5136388;27;45179;-81
2022/03/05 03:15:42;;;;;;;14.52;7.30;;;16.80;37.40;;;;;;5129097;27;45543;-81
2022/03/05 03:18:08;;;;;;;13.77;7.05;;;16.80;37.60;;;;;;5111540;27;47970;-81
2022/03/05 03:20:35;;;;;;;12.68;7.57;;;16.80;37.50;;;;;;5119184;27;45901;-81
2022/03/05 03:23:02;;;;;;;13.38;7.35;;;16.80;37.80;;;;;;5118554;27;45312;-81
2022/03/05 03:25:29;;;;;;;11.20;6.97;;;16.80;37.80;;;;;;5122786;27;45198;-81
2022/03/05 03:27:56;;;;;;;12.25;6.50;;;16.80;37.90;;;;;;5128259;27;48212;-81
2022/03/05 03:30:24;;;;;;;12.18;7.20;;;16.80;38.10;;;;;;5111501;27;45239;-81
2022/03/05 03:32:51;;;;;;;11.23;6.88;;;16.80;38.10;;;;;;5127561;27;45291;-81
2022/03/05 03:35:19;;;;;;;12.90;7.10;;;16.80;38.10;;;;;;5115694;27;45436;-81
2022/03/05 03:37:46;;;;;;;13.10;7.40;;;16.90;38.40;;;;;;5126769;27;47277;-81
2022/03/05 03:40:15;;;;;;;11.15;6.60;;;16.90;38.30;;;;;;5129455;27;45345;-82
2022/03/05 03:42:43;;;;;;;12.07;7.30;;;16.90;38.30;;;;;;5118276;27;45294;-81
2022/03/05 03:45:11;;;;;;;11.60;6.78;;;16.90;38.50;;;;;;5128779;27;45384;-81
2022/03/05 03:47:40;;;;;;;13.07;7.72;;;16.90;38.50;;;;;;5128870;27;47089;-81
2022/03/05 03:50:08;;;;;;;13.77;7.70;;;16.90;38.50;;;;;;5125696;27;46373;-82
2022/03/05 03:52:35;;;;;;;13.73;7.53;;;16.90;38.50;;;;;;5122701;27;45589;-81
2022/03/05 03:55:03;;;;;;;15.50;7.93;;;16.90;38.60;;;;;;5118946;27;45667;-81
2022/03/05 03:57:30;;;;;;;12.35;7.20;;;16.90;38.20;;;;;;5130603;27;45978;-81
2022/03/05 03:59:57;;;;;;;12.05;7.10;;;16.90;38.40;;;;;;5124544;27;45551;-81
2022/03/05 04:02:24;;;;;;;13.48;7.18;;;16.90;38.60;;;;;;5126082;27;45359;-81
2022/03/05 04:04:52;;;;;;;11.55;7.00;;;16.90;38.70;;;;;;5111350;27;45345;-81
2022/03/05 04:10:04;;;;;;;11.52;6.97;;;16.90;38.60;;;;;;5127156;27;45370;-82
2022/03/05 04:12:31;;;;;;;14.55;7.55;;;16.80;37.50;;;;;;5130881;27;45320;-82
2022/03/05 04:14:58;;;;;;;15.55;8.13;;;16.80;36.90;;;;;;5118299;27;45314;-82
2022/03/05 04:17:25;;;;;;;16.05;8.10;;;16.80;36.60;;;;;;5120343;27;46077;-82
2022/03/05 04:19:53;;;;;;;14.80;8.02;;;16.80;36.10;;;;;;5129071;27;45312;-81
2022/03/05 04:22:19;;;;;;;15.82;8.73;;;16.80;35.90;;;;;;5128973;27;45452;-82
2022/03/05 04:24:46;;;;;;;14.02;7.72;;;16.80;35.70;;;;;;5150206;27;45391;-82
2022/03/05 04:27:13;;;;;;;12.75;7.28;;;16.90;38.50;;;;;;5128792;27;46228;-82
2022/03/05 04:29:40;;;;;;;14.45;8.05;;;16.90;38.80;;;;;;5128898;27;45191;-82
2022/03/05 04:32:08;;;;;;;12.90;7.72;;;16.90;37.40;;;;;;5127986;27;45168;-81
2022/03/05 04:34:34;;;;;;;16.30;8.68;;;16.90;37.00;;;;;;5114158;27;45321;-82
2022/03/05 04:37:03;;;;;;;13.25;7.50;;;16.90;36.90;;;;;;5125488;27;47133;-82
2022/03/05 04:39:30;;;;;;;16.23;8.13;;;16.90;35.90;;;;;;5109811;27;45919;-82
2022/03/05 04:41:58;;;;;;;13.55;7.78;;;16.80;35.40;;;;;;5121786;27;45191;-82
2022/03/05 04:44:25;;;;;;;16.63;8.93;;;16.80;35.20;;;;;;5130018;27;45274;-82
2022/03/05 04:46:51;;;;;;;14.20;7.90;;;16.80;35.10;;;;;;5125650;27;47169;-81
2022/03/05 04:49:18;;;;;;;13.98;8.23;;;16.80;35.10;;;;;;5128169;27;45326;-82
2022/03/05 04:51:45;;;;;;;16.38;8.27;;;16.80;35.10;;;;;;5119939;27;45414;-82
2022/03/05 04:54:13;;;;;;;14.82;7.97;;;16.80;35.20;;;;;;5115089;27;45345;-82
2022/03/05 04:56:40;;;;;;;14.82;8.00;;;16.70;35.00;;;;;;5127716;27;47926;-82
2022/03/05 04:59:07;;;;;;;15.77;8.20;;;16.70;34.80;;;;;;5126149;27;45460;-82
2022/03/05 05:01:34;;;;;;;15.32;8.70;;;16.70;34.90;;;;;;5112544;27;45334;-81
2022/03/05 05:04:01;;;;;;;16.00;8.70;;;16.70;34.90;;;;;;5122792;27;45176;-82
2022/03/05 05:06:28;;;;;;;20.67;9.10;;;16.70;34.80;;;;;;5123051;27;47135;-82
2022/03/05 05:08:55;;;;;;;18.58;9.07;;;16.70;34.70;;;;;;5128750;27;45344;-82
2022/03/05 05:11:23;;;;;;;16.13;8.25;;;16.80;34.70;;;;;;5124284;27;45327;-82
2022/03/05 05:13:50;;;;;;;13.85;7.63;;;16.80;35.00;;;;;;5115352;27;45370;-81
2022/03/05 05:16:17;;;;;;;13.75;7.70;;;16.80;34.90;;;;;;5123405;27;47187;-82
2022/03/05 05:19:24;;;;;;;15.27;8.43;;;16.80;34.70;;;;;;5111909;27;45216;-81
2022/03/05 05:21:31;;;;;;;16.00;8.32;;;16.80;34.60;;;;;;5127504;27;45419;-81
2022/03/05 05:23:58;;;;;;;13.63;7.63;;;16.80;34.60;;;;;;5128027;27;45196;-81
2022/03/05 05:26:27;;;;;;;16.48;8.23;;;16.80;34.30;;;;;;5116468;27;47416;-82
2022/03/05 05:28:53;;;;;;;14.15;8.27;;;16.80;34.10;;;;;;5125202;27;45357;-82
2022/03/05 05:31:20;;;;;;;15.38;8.45;;;16.70;34.00;;;;;;5131557;27;45419;-81
2022/03/05 05:33:47;;;;;;;15.95;8.82;;;16.70;34.10;;;;;;5119269;27;45180;-81
2022/03/05 05:36:14;;;;;;;15.32;8.65;;;16.70;34.00;;;;;;5116529;27;45997;-82
2022/03/05 05:38:41;;;;;;;16.27;7.63;;;16.70;34.10;;;;;;5109779;27;45171;-82
2022/03/05 05:41:09;;;;;;;16.52;8.77;;;16.70;34.20;;;;;;5116347;27;45482;-82
2022/03/05 05:43:37;;;;;;;15.50;8.73;;;16.70;34.20;;;;;;5128395;27;45545;-81
2022/03/05 05:46:05;;;;;;;14.75;8.32;;;16.70;34.30;;;;;;5118515;27;45469;-83
2022/03/05 05:48:32;;;;;;;15.13;7.53;;;16.70;34.50;;;;;;5126166;27;45313;-81
2022/03/05 05:50:59;;;;;;;15.70;8.50;;;16.70;40.20;;;;;;5119631;27;45238;-82
2022/03/05 05:53:26;;;;;;;16.42;8.65;;;16.70;38.00;;;;;;5115308;27;45498;-82
2022/03/05 05:55:53;;;;;;;14.55;8.02;;;16.70;36.70;;;;;;5122621;27;46888;-82
2022/03/05 05:58:20;;;;;;;16.88;9.30;;;16.70;36.00;;;;;;5111893;27;45166;-81
2022/03/05 06:00:48;;;;;;;15.20;8.60;;;16.80;35.50;;;;;;5126778;27;45341;-81
2022/03/05 06:03:16;;;;;;;15.30;8.35;;;16.80;35.10;;;;;;5125320;27;45313;-81
2022/03/05 06:05:43;;;;;;;14.88;8.88;;;16.80;34.90;;;;;;5127276;27;46472;-80
2022/03/05 06:08:10;;;;;;;13.77;7.20;;;16.80;34.60;;;;;;5124864;27;45397;-80
2022/03/05 06:10:37;;;;;;;15.55;8.25;;;16.80;34.80;;;;;;5127406;27;45181;-80
2022/03/05 06:13:04;;;;;;;16.85;8.35;;;16.70;34.70;;;;;;5125918;27;45388;-81
2022/03/05 06:15:31;;;;;;;15.57;8.38;;;16.70;35.30;;;;;;5118599;27;46452;-81
2022/03/05 06:17:59;;;;;;;14.63;8.70;;;16.60;34.70;;;;;;5117340;27;45174;-81
2022/03/05 06:20:26;;;;;;;14.10;8.05;;;16.60;34.70;;;;;;5118643;27;45356;-81
2022/03/05 06:22:53;;;;;;;15.18;8.68;;;16.60;34.40;;;;;;5128495;27;45269;-81
2022/03/05 06:25:20;;;;;;;14.60;8.13;;;16.60;34.50;;;;;;5122558;27;46132;-82
2022/03/05 06:27:46;;;;;;;16.42;8.38;;;16.50;34.30;;;;;;5128178;27;45324;-81
2022/03/05 06:30:14;;;;;;;15.45;8.30;;;16.50;34.20;;;;;;5127598;27;45307;-81
2022/03/05 06:32:41;;;;;;;15.23;8.18;;;16.50;34.70;;;;;;5122440;27;45305;-80
2022/03/05 06:35:10;;;;;;;14.18;7.88;;;16.60;34.20;;;;;;5123948;27;46284;-81
2022/03/05 06:37:38;;;;;;;16.67;8.52;;;16.60;34.10;;;;;;5117424;27;45209;-80
2022/03/05 06:40:06;;;;;;;17.30;9.18;;;16.50;34.20;;;;;;5125767;27;46236;-80
2022/03/05 06:42:33;;;;;;;15.35;7.95;;;16.50;34.10;;;;;;5128263;27;45338;-81
2022/03/05 06:44:59;;;;;;;14.65;7.63;;;16.50;34.80;;;;;;5112135;27;47174;-81
2022/03/05 06:47:26;;;;;;;16.33;8.07;;;16.50;34.30;;;;;;5118679;27;45337;-82
2022/03/05 06:49:54;;;;;;;15.88;8.32;;;16.50;34.00;;;;;;5124508;27;45199;-81
2022/03/05 06:52:22;;;;;;;15.38;7.53;;;16.50;34.00;;;;;;5128485;27;45234;-81
2022/03/05 06:54:50;;;;;;;16.08;8.80;;;16.50;34.30;;;;;;5133547;27;45491;-81
2022/03/05 06:57:16;;;;;;;18.10;8.48;;;16.50;34.00;;;;;;5129879;27;45347;-81
2022/03/05 06:59:43;;;;;;;16.40;8.00;;;16.50;33.90;;;;;;5117622;27;45444;-82
2022/03/05 07:02:10;;;;;;;15.48;8.38;;;16.50;34.00;;;;;;5117914;27;45435;-84
2022/03/05 07:04:37;;;;;;;18.25;9.05;;;16.50;34.00;;;;;;5126858;27;46544;-82
2022/03/05 07:07:04;;;;;;;15.07;8.48;;;16.50;33.90;;;;;;5124080;27;45499;-83
2022/03/05 07:09:33;;;;;;;13.93;8.18;;;16.50;34.00;;;;;;5124809;27;45783;-85
2022/03/05 07:12:00;;;;;;;13.50;7.55;;;16.60;39.00;;;;;;5129733;27;45450;-81
2022/03/05 07:14:27;;;;;;;13.50;7.80;;;16.50;37.20;;;;;;5114258;27;45190;-81
2022/03/05 07:16:54;;;;;;;14.50;7.85;;;16.50;36.40;;;;;;5126646;27;45309;-80
2022/03/05 07:19:21;;;;;;;13.38;7.35;;;16.50;35.90;;;;;;5120596;27;45209;-82
2022/03/05 07:21:48;;;;;;;14.32;7.63;;;16.50;35.50;;;;;;5111990;27;45720;-83
2022/03/05 07:24:15;;;;;;;15.43;8.50;;;16.50;35.50;;;;;;5121955;27;46498;-82
2022/03/05 07:26:43;;;;;;;14.73;7.93;;;16.50;35.30;;;;;;5130319;27;45168;-83
2022/03/05 07:29:10;;;;;;;16.52;7.75;;;16.50;35.20;;;;;;5130446;27;45347;-82
2022/03/05 07:31:37;;;;;;;11.77;6.93;;;16.50;35.00;;;;;;5124669;27;45256;-81
2022/03/05 07:34:04;;;;;;;16.45;8.35;;;16.50;34.70;;;;;;5114770;27;46323;-82
2022/03/05 07:36:31;;;;;;;14.05;8.23;;;16.50;34.90;;;;;;5116243;27;45663;-81
2022/03/05 07:38:58;;;;;;;14.55;8.10;;;16.60;34.90;;;;;;5109109;27;45293;-81
2022/03/05 07:41:25;;;;;;;14.38;7.78;;;16.60;34.60;;;;;;5122630;27;45336;-82
2022/03/05 07:43:53;;;;;;;13.95;7.43;;;16.60;34.40;;;;;;5130598;27;47155;-82
2022/03/05 07:46:20;;;;;;;15.45;8.05;;;16.60;34.40;;;;;;5117691;27;45219;-81
2022/03/05 07:48:47;;;;;;;14.43;8.05;;;16.60;35.50;;;;;;5129780;27;45155;-81
2022/03/05 07:51:14;;;;;;;14.65;7.35;;;16.50;34.20;;;;;;5122742;27;45495;-81
2022/03/05 07:53:41;;;;;;;13.18;7.15;;;16.60;34.50;;;;;;5120135;27;47394;-82
2022/03/05 07:56:07;;;;;;;15.70;8.10;;;16.60;34.30;;;;;;5119804;27;45227;-79
2022/03/05 07:58:34;;;;;;;12.50;6.18;;;16.60;37.00;;;;;;5124503;27;45222;-78
2022/03/05 08:01:03;;;;;;;11.27;6.35;;;16.70;38.30;;;;;;5123828;27;45494;-79
2022/03/05 08:03:30;;;;;;;13.02;6.72;;;16.70;38.60;;;;;;5118605;27;46179;-79
2022/03/05 08:05:57;;;;;;;12.10;6.13;;;16.70;38.80;;;;;;5120132;27;45247;-79
2022/03/05 08:08:24;;;;;;;10.10;6.20;;;16.80;38.50;;;;;;5116692;27;45299;-79
2022/03/05 08:10:51;;;;;;;13.77;6.90;;;16.80;38.00;;;;;;5116169;27;46418;-79
2022/03/05 08:13:18;;;;;;;11.52;6.50;;;16.80;37.90;;;;;;5128223;27;46244;-79
2022/03/05 08:15:45;;;;;;;13.30;6.10;;;16.80;38.40;;;;;;5126514;27;45304;-78
2022/03/05 08:18:13;;;;;;;10.07;5.53;;;16.80;38.10;;;;;;5114768;27;45240;-78
2022/03/05 08:20:40;;;;;;;12.90;6.25;;;16.80;38.00;;;;;;5123199;27;45250;-78
2022/03/05 08:23:07;;;;;;;11.70;6.57;;;16.80;37.20;;;;;;5126007;27;46302;-79
2022/03/05 08:25:34;;;;;;;14.38;6.72;;;16.80;37.40;;;;;;5127060;27;45396;-79
2022/03/05 08:28:01;;;;;;;11.93;6.78;;;16.90;37.40;;;;;;5129483;27;45113;-78
2022/03/05 08:30:28;;;;;;;12.02;7.38;;;16.90;36.20;;;;;;5115037;27;47329;-79
2022/03/05 08:32:55;;;;;;;12.35;6.85;;;16.90;37.30;;;;;;5117749;27;50431;-79
2022/03/05 08:35:24;;;;;;;13.23;6.63;;;16.90;36.60;;;;;;5118132;27;45270;-78
2022/03/05 08:37:51;;;;;;;13.45;6.57;;;16.90;36.70;;;;;;5125758;27;45219;-79
2022/03/05 08:40:19;;;;;;;16.90;7.47;;;16.90;36.90;;;;;;5112864;27;45248;-79
2022/03/05 08:42:48;;;;;;;15.82;7.47;;;17.00;36.70;;;;;;5122891;27;45469;-79
2022/03/05 08:45:15;;;;;;;11.57;6.20;;;17.10;36.40;;;;;;5113755;27;45338;-81
2022/03/05 08:47:44;;;;;;;11.50;6.28;;;17.20;36.80;;;;;;5118173;27;45464;-79
2022/03/05 08:50:11;;;;;;;14.07;6.95;;;17.20;36.70;;;;;;5116814;27;45282;-79
2022/03/05 08:52:39;;;;;;;10.20;6.32;;;17.30;36.60;;;;;;5114157;27;47400;-78
2022/03/05 08:55:08;;;;;;;12.60;7.15;;;17.30;36.60;;;;;;5120181;27;45485;-79
2022/03/05 08:57:35;;;;;;;11.55;5.80;;;17.30;36.60;;;;;;5112760;27;45243;-81
2022/03/05 09:00:02;;;;;;;11.82;6.85;;;17.40;36.60;;;;;;5118641;27;45323;-80
2022/03/05 09:02:30;;;;;;;11.75;6.60;;;17.40;36.70;;;;;;5114972;27;45321;-79
2022/03/05 09:04:57;;;;;;;12.40;6.80;;;17.50;38.10;;;;;;5113450;27;45423;-79
2022/03/05 09:07:24;;;;;;;11.77;6.53;;;17.50;36.50;;;;;;5119775;27;45328;-79
2022/03/05 09:09:52;;;;;;;15.63;6.65;;;17.50;36.40;;;;;;5128727;27;45272;-79
2022/03/05 09:12:19;;;;;;;13.05;6.90;;;17.50;36.40;;;;;;5120078;27;46634;-79
2022/03/05 09:14:46;;;;;;;11.57;6.35;;;17.60;36.30;;;;;;5125505;27;45237;-78
2022/03/05 09:17:13;;;;;;;12.73;6.47;;;17.60;36.30;;;;;;5114929;27;45359;-79
2022/03/05 09:19:40;;;;;;;13.15;6.50;;;17.60;38.50;;;;;;5122667;27;45388;-79
2022/03/05 09:22:09;;;;;;;12.10;6.78;;;17.60;39.80;;;;;;5129827;27;47432;-79
2022/03/05 09:24:37;;;;;;;11.60;6.38;;;17.50;37.90;;;;;;5128268;27;45607;-79
2022/03/05 09:27:06;;;;;;;11.35;6.35;;;17.50;37.40;;;;;;5118766;27;45304;-79
2022/03/05 09:29:33;;;;;;;13.48;7.13;;;17.50;37.10;;;;;;5121135;27;45445;-78
2022/03/05 09:32:00;;;;;;;12.15;7.07;;;17.40;37.40;;;;;;5116190;27;45625;-79
2022/03/05 09:34:27;;;;;;;10.77;6.82;;;17.50;36.80;;;;;;5114671;27;45166;-79
2022/03/05 09:36:53;;;;;;;12.00;6.35;;;17.40;36.60;;;;;;5112534;27;45326;-79
2022/03/05 09:39:20;;;;;;;12.50;7.10;;;17.40;36.70;;;;;;5127536;27;45298;-79
2022/03/05 09:41:47;;;;;;;12.50;6.85;;;17.40;36.60;;;;;;5126745;27;46601;-78
2022/03/05 09:44:16;;;;;;;12.05;6.20;;;17.40;36.60;;;;;;5117366;27;45175;-79
2022/03/05 09:46:44;;;;;;;11.77;6.60;;;17.40;36.60;;;;;;5110904;27;45355;-79
2022/03/05 09:49:12;;;;;;;12.43;6.95;;;17.40;36.50;;;;;;5113963;27;45286;-79
2022/03/05 09:51:39;;;;;;;10.13;5.78;;;17.40;36.80;;;;;;5111219;27;47137;-78
2022/03/05 09:54:06;;;;;;;10.38;5.80;;;17.40;36.70;;;;;;5126933;27;45268;-79
2022/03/05 09:56:33;;;;;;;11.15;5.60;;;17.50;36.70;;;;;;5125868;27;45300;-79
2022/03/05 09:59:00;;;;;;;12.00;6.30;;;17.40;36.60;;;;;;5118960;27;45668;-79
2022/03/05 10:01:30;;;;;;;11.45;6.40;;;17.40;36.60;;;;;;5126032;27;46439;-79
2022/03/05 10:03:57;;;;;;;10.32;5.95;;;17.40;36.80;;;;;;5115799;27;45189;-79
2022/03/05 10:06:26;;;;;;;10.60;5.88;;;17.50;36.80;;;;;;5119120;27;45325;-79
2022/03/05 10:08:55;;;;;;;10.77;5.68;;;17.50;36.70;;;;;;5107239;27;45322;-79
2022/03/05 10:11:22;;;;;;;11.88;6.00;;;17.60;36.70;;;;;;5125013;27;46254;-78
2022/03/05 10:13:50;;;;;;;11.70;6.15;;;17.60;36.90;;;;;;5119685;27;45347;-78
2022/03/05 10:16:28;;;;;;;11.52;6.03;;;17.50;36.60;;;;;;5111388;27;45363;-79
2022/03/05 10:18:56;;;;;;;10.95;6.22;;;17.40;36.50;;;;;;5122297;27;45754;-79
2022/03/05 10:21:31;;;;;;;9.30;5.97;;;17.40;36.60;;;;;;5125080;27;46216;-78
2022/03/05 10:24:06;;;;;;;11.68;5.93;;;17.30;36.60;;;;;;5124314;27;45275;-79
2022/03/05 10:26:58;;;;;;;11.18;4.93;;;17.30;37.40;;;;;;5116194;27;45269;-79
2022/03/05 10:29:26;;;;;;;10.60;6.10;;;17.20;39.00;;;;;;5108889;27;45311;-78
2022/03/05 10:32:02;;;;;;;9.25;5.43;;;17.30;38.20;;;;;;5125607;27;46292;-79
2022/03/05 10:34:52;;;;;;;9.57;5.50;;;17.20;38.60;;;;;;5137452;27;45568;-79
2022/03/05 10:37:20;;;;;;;9.60;5.13;;;17.20;38.60;;;;;;5110447;27;45279;-79
2022/03/05 10:39:48;;;;;;;8.30;4.80;;;17.20;39.00;;;;;;5118511;27;45473;-79
2022/03/05 10:42:19;;;;;;;8.75;5.07;;;17.20;38.70;;;;;;5125026;27;45286;-79
2022/03/05 10:45:00;;;;;;;9.13;5.03;;;17.20;39.10;;;;;;5125887;27;45224;-78
2022/03/05 10:47:36;;;;;;;11.65;5.82;;;17.20;39.00;;;;;;5124446;27;45432;-78
2022/03/05 10:50:07;;;;;;;9.15;5.20;;;17.20;39.10;;;;;;5126021;27;46663;-78
2022/03/05 10:52:44;;;;;;;10.85;5.00;;;17.30;39.20;;;;;;5129817;27;45277;-78
2022/03/05 10:55:16;;;;;;;12.05;5.60;;;17.30;38.90;;;;;;5120796;27;45394;-78
2022/03/05 10:58:00;;;;;;;9.15;5.15;;;17.30;40.60;;;;;;5118438;27;45513;-79
2022/03/05 11:00:28;;;;;;;14.30;5.65;;;17.30;41.30;;;;;;5126021;27;45105;-80
2022/03/05 11:02:57;;;;;;;7.70;4.82;;;17.40;42.70;;;;;;5124169;27;45485;-80
2022/03/05 11:05:26;;;;;;;9.20;4.78;;;17.60;42.40;;;;;;5118386;27;45176;-79
2022/03/05 11:07:55;;;;;;;8.88;5.32;;;17.80;42.30;;;;;;5117614;27;45459;-79
2022/03/05 11:10:26;;;;;;;8.63;4.80;;;18.10;41.90;;;;;;5122328;27;46336;-79
2022/03/05 11:12:56;;;;;;;9.07;4.65;;;18.30;42.10;;;;;;5129822;27;46165;-79
2022/03/05 11:15:24;;;;;;;10.48;4.70;;;18.50;42.00;;;;;;5127146;27;45677;-79
2022/03/05 11:17:52;;;;;;;9.30;5.07;;;18.80;42.20;;;;;;5125165;27;45219;-79
2022/03/05 11:20:18;;;;;;;7.78;4.60;;;19.00;42.30;;;;;;5110187;27;45444;-79
2022/03/05 11:22:49;;;;;;;6.47;4.22;;;19.30;42.80;;;;;;5130593;27;45218;-79
2022/03/05 11:25:18;;;;;;;8.30;4.93;;;19.30;42.50;;;;;;5130741;27;45178;-79
2022/03/05 11:28:00;;;;;;;7.70;4.88;;;19.50;42.70;;;;;;5122717;27;45882;-79
2022/03/05 11:30:27;;;;;;;7.97;4.30;;;19.70;42.70;;;;;;5110848;27;45183;-79
2022/03/05 11:32:54;;;;;;;8.02;4.63;;;19.80;42.80;;;;;;5112300;27;46178;-79
2022/03/05 11:35:23;;;;;;;7.43;4.25;;;19.90;43.10;;;;;;5130236;27;45261;-79
2022/03/05 11:37:52;;;;;;;6.65;4.35;;;20.00;44.00;;;;;;5115121;27;45367;-79
2022/03/05 11:40:34;;;;;;;7.95;4.28;;;20.10;43.00;;;;;;5131696;27;45477;-79
2022/03/05 11:43:21;;;;;;;9.18;4.43;;;20.20;43.10;;;;;;5129941;27;47925;-79
2022/03/05 11:45:50;;;;;;;10.10;4.53;;;20.30;42.50;;;;;;5126307;27;45258;-79
2022/03/05 11:48:36;;;;;;;7.47;4.40;;;20.30;42.80;;;;;;5113677;27;45277;-79
2022/03/05 11:51:12;;;;;;;23.97;5.73;;;20.30;43.70;;;;;;5122383;27;45337;-78
2022/03/05 11:53:42;;;;;;;13.20;5.20;;;20.20;43.60;;;;;;5128102;27;46150;-77
2022/03/05 11:56:22;;;;;;;8.88;5.00;;;20.30;43.50;;;;;;5119748;27;45279;-78
2022/03/05 11:58:49;;;;;;;17.17;4.70;;;20.40;43.40;;;;;;5115994;27;45355;-78
2022/03/05 12:01:41;;;;;;;11.57;5.30;;;20.50;42.90;;;;;;5120719;27;45549;-78
2022/03/05 12:04:19;;;;;;;13.52;5.10;;;20.40;42.90;;;;;;5123524;27;45395;-79
2022/03/05 12:06:47;;;;;;;8.75;4.78;;;20.30;42.50;;;;;;5115388;27;45571;-79
2022/03/05 12:09:39;;;;;;;11.13;5.35;;;20.10;42.50;;;;;;5119286;27;45450;-79
2022/03/05 12:12:08;;;;;;;9.43;4.68;;;19.40;41.70;;;;;;5123560;27;45415;-79
2022/03/05 12:15:13;;;;;;;11.13;4.43;;;18.90;42.70;;;;;;5121068;27;46411;-79
2022/03/05 12:17:47;;;;;;;8.73;5.18;;;18.60;42.90;;;;;;5117709;27;45804;-79
2022/03/05 12:20:16;;;;;;;7.50;4.70;;;18.40;42.90;;;;;;5111654;27;45287;-80
2022/03/05 12:22:47;;;;;;;8.68;4.95;;;18.30;42.90;;;;;;5126526;27;45441;-78
2022/03/05 12:25:16;;;;;;;9.55;4.70;;;18.20;42.50;;;;;;5128864;27;46517;-79
2022/03/05 12:27:47;;;;;;;7.38;4.93;;;18.20;42.40;;;;;;5126749;27;45278;-79
2022/03/05 12:30:15;;;;;;;8.07;4.55;;;18.10;42.70;;;;;;5110555;27;45245;-79
2022/03/05 12:32:45;;;;;;;6.90;4.18;;;18.00;42.50;;;;;;5119906;27;45469;-79
2022/03/05 12:35:12;;;;;;;9.25;4.65;;;18.00;42.90;;;;;;5117410;27;45407;-79
2022/03/05 12:37:39;;;;;;;7.97;4.70;;;17.90;42.80;;;;;;5126472;27;45324;-78
2022/03/05 12:40:07;;;;;;;7.68;4.70;;;17.90;42.50;;;;;;5109098;27;45203;-79
2022/03/05 12:42:42;;;;;;;10.68;4.28;;;17.90;42.00;;;;;;5111583;27;45540;-79
2022/03/05 12:45:15;;;;;;;9.55;4.82;;;17.90;41.90;;;;;;5106578;27;46167;-79
2022/03/05 12:47:42;;;;;;;6.13;3.83;;;17.90;41.30;;;;;;5125967;27;45612;-78
2022/03/05 12:50:23;;;;;;;10.20;4.70;;;17.80;41.40;;;;;;5120479;27;45253;-79